Time;durP1;ratioP1;P1;durP2;ratioP2;P2;SDS_P1;SDS_P2;PMS_P1;PMS_P2;Temp;Humidity;BMP_temperature;BMP_pressure;BME280_temperature;BME280_humidity;BME280_pressure;Samples;Min_cycle;Max_cycle;Signal;HPM_P1;HPM_P2
2022/09/13 00:01:04;;;;;;;0.60;0.60;;;;;;;10.59;78.44;99179.03;4487746;31;34022;-75
2022/09/13 00:03:32;;;;;;;0.40;0.40;;;;;;;10.25;79.79;99177.69;4501778;31;35057;-68
2022/09/13 00:06:12;;;;;;;0.45;0.45;;;;;;;11.10;76.95;99176.56;4486032;31;34668;-68
2022/09/13 00:08:40;;;;;;;0.40;0.40;;;;;;;11.47;74.40;99169.84;4501932;31;33951;-69
2022/09/13 00:11:15;;;;;;;0.77;0.77;;;;;;;11.15;74.35;99177.34;4500030;31;33883;-68
2022/09/13 00:13:44;;;;;;;1.12;0.95;;;;;;;10.52;78.20;99182.59;4486039;31;34917;-69
2022/09/13 00:16:13;;;;;;;0.40;0.40;;;;;;;10.25;79.48;99179.41;4484711;31;34988;-69
2022/09/13 00:18:41;;;;;;;0.60;0.60;;;;;;;11.37;73.89;99177.00;4501672;31;33505;-68
2022/09/13 00:21:14;;;;;;;0.90;0.90;;;;;;;11.54;72.83;99174.97;4487825;31;34785;-68
2022/09/13 00:23:47;;;;;;;0.47;0.47;;;;;;;11.02;74.49;99178.41;4487544;31;35112;-69
2022/09/13 00:26:18;;;;;;;0.68;0.60;;;;;;;10.48;77.18;99180.91;4486159;31;35139;-68
2022/09/13 00:28:52;;;;;;;0.47;0.47;;;;;;;11.14;74.94;99172.16;4486302;31;32584;-68
2022/09/13 00:31:22;;;;;;;0.57;0.57;;;;;;;10.36;76.76;99174.97;4500553;31;34003;-69
2022/09/13 00:33:51;;;;;;;0.50;0.50;;;;;;;11.08;74.05;99169.63;4501782;31;35911;-69
2022/09/13 00:36:18;;;;;;;0.43;0.43;;;;;;;10.96;74.70;99170.69;4500027;31;34420;-68
2022/09/13 00:38:46;;;;;;;0.55;0.55;;;;;;;11.11;73.87;99166.97;4487407;31;34300;-71
2022/09/13 00:41:16;;;;;;;1.08;0.65;;;;;;;10.92;75.19;99171.59;4501510;31;33990;-75
2022/09/13 00:43:52;;;;;;;0.47;0.47;;;;;;;10.49;76.35;99164.41;4501260;31;34964;-74
2022/09/13 00:46:50;;;;;;;1.20;1.12;;;;;;;10.41;77.64;99169.69;4473917;32;34463;-69
2022/09/13 00:49:21;;;;;;;0.50;0.50;;;;;;;11.24;73.50;99173.72;4455495;32;34244;-68
2022/09/13 00:51:54;;;;;;;0.62;0.57;;;;;;;11.07;73.97;99176.59;4471744;32;33829;-70
2022/09/13 00:54:25;;;;;;;0.40;0.40;;;;;;;11.17;73.66;99172.97;4459009;31;35339;-69
2022/09/13 00:56:56;;;;;;;0.70;0.70;;;;;;;11.10;73.85;99178.28;4501078;31;34394;-68
2022/09/13 00:59:29;;;;;;;0.60;0.60;;;;;;;11.07;73.47;99165.31;4501443;31;33428;-68
2022/09/13 01:01:57;;;;;;;0.40;0.40;;;;;;;10.92;73.60;99172.44;4481970;31;34036;-73
2022/09/13 01:04:26;;;;;;;1.25;1.15;;;;;;;10.85;73.61;99176.03;4483429;31;34686;-69
2022/09/13 01:06:56;;;;;;;0.60;0.60;;;;;;;10.87;73.95;99174.28;4494846;31;34615;-68
2022/09/13 01:09:25;;;;;;;1.12;1.12;;;;;;;10.59;76.15;99169.47;4485862;31;33415;-68
2022/09/13 01:12:03;;;;;;;0.70;0.70;;;;;;;10.82;74.51;99176.97;4500802;31;33759;-68
2022/09/13 01:14:31;;;;;;;0.50;0.50;;;;;;;10.73;74.58;99171.88;4486023;31;35209;-68
2022/09/13 01:16:59;;;;;;;0.50;0.50;;;;;;;10.58;75.45;99174.69;4498307;31;34288;-68
2022/09/13 01:19:27;;;;;;;0.77;0.77;;;;;;;10.46;75.13;99173.09;4499520;31;33612;-68
2022/09/13 01:22:13;;;;;;;0.57;0.57;;;;;;;9.79;78.35;99172.13;4500950;31;33957;-68
2022/09/13 01:24:58;;;;;;;0.50;0.50;;;;;;;10.20;78.46;99171.66;4498604;31;35017;-68
2022/09/13 01:27:54;;;;;;;0.40;0.40;;;;;;;10.60;75.07;99165.09;4500851;31;34303;-69
2022/09/13 01:30:23;;;;;;;0.50;0.50;;;;;;;10.22;76.19;99163.84;4501063;31;33520;-68
2022/09/13 01:33:29;;;;;;;0.65;0.65;;;;;;;10.23;76.67;99163.81;4499658;31;33958;-68
2022/09/13 01:36:00;;;;;;;0.75;0.75;;;;;;;10.50;75.46;99167.00;4498658;31;35892;-69
2022/09/13 01:38:50;;;;;;;0.68;0.68;;;;;;;9.59;78.54;99167.97;4499243;31;35204;-69
2022/09/13 01:41:54;;;;;;;0.60;0.60;;;;;;;10.35;75.97;99165.44;4500766;31;33395;-68
2022/09/13 01:44:34;;;;;;;0.50;0.50;;;;;;;10.00;76.56;99163.22;4499230;31;34767;-68
2022/09/13 01:47:14;;;;;;;0.77;0.77;;;;;;;10.42;74.50;99155.81;4500422;31;35027;-71
2022/09/13 01:50:06;;;;;;;0.80;0.80;;;;;;;9.69;77.09;99160.97;4499543;31;35212;-68
2022/09/13 01:52:43;;;;;;;0.60;0.60;;;;;;;9.19;81.72;99160.53;4486458;31;33359;-68
2022/09/13 01:55:19;;;;;;;0.60;0.60;;;;;;;10.29;76.42;99159.41;4485028;31;33978;-69
2022/09/13 01:57:55;;;;;;;0.70;0.70;;;;;;;10.39;74.80;99151.53;4500454;31;35183;-68
2022/09/13 02:00:23;;;;;;;0.60;0.60;;;;;;;10.11;76.58;99150.97;4484979;31;35056;-69
2022/09/13 02:02:56;;;;;;;0.62;0.62;;;;;;;10.30;74.74;99154.19;4486307;31;34126;-68
2022/09/13 02:05:31;;;;;;;0.80;0.80;;;;;;;10.12;75.87;99150.06;4484444;31;34608;-72
2022/09/13 02:08:18;;;;;;;0.95;0.70;;;;;;;9.71;77.26;99151.41;4484643;31;35004;-70
2022/09/13 02:11:05;;;;;;;0.40;0.40;;;;;;;10.23;75.82;99148.19;4502799;31;34319;-68
2022/09/13 02:13:40;;;;;;;0.80;0.80;;;;;;;10.42;74.55;99145.41;4488482;31;33307;-69
2022/09/13 02:16:12;;;;;;;1.37;1.27;;;;;;;9.60;78.59;99148.91;4487247;31;34714;-69
2022/09/13 02:18:42;;;;;;;1.17;1.17;;;;;;;9.91;77.51;99145.97;4502700;31;35049;-68
2022/09/13 02:21:17;;;;;;;0.50;0.50;;;;;;;10.40;75.01;99142.81;4501536;31;34326;-68
2022/09/13 02:23:50;;;;;;;0.55;0.55;;;;;;;10.26;74.49;99139.50;4501310;31;33451;-69
2022/09/13 02:26:20;;;;;;;1.17;0.80;;;;;;;10.09;75.07;99134.50;4486862;31;33732;-68
2022/09/13 02:28:52;;;;;;;2.83;1.12;;;;;;;9.62;76.45;99134.16;4488207;31;35287;-68
2022/09/13 02:31:27;;;;;;;0.82;0.82;;;;;;;9.71;77.10;99134.94;4475473;31;33617;-69
2022/09/13 02:33:57;;;;;;;1.17;0.88;;;;;;;10.03;75.78;99127.62;4488456;31;33509;-72
2022/09/13 02:36:29;;;;;;;0.60;0.60;;;;;;;9.44;78.56;99127.41;4467495;32;32559;-70
2022/09/13 02:39:00;;;;;;;0.60;0.60;;;;;;;8.77;81.87;99130.53;4481018;31;35075;-68
2022/09/13 02:41:49;;;;;;;0.90;0.85;;;;;;;9.62;79.24;99134.16;4487129;31;34301;-69
2022/09/13 02:44:44;;;;;;;1.58;1.48;;;;;;;9.32;81.29;99134.44;4502448;31;33444;-69
2022/09/13 02:47:56;;;;;;;1.92;1.83;;;;;;;9.83;79.07;99137.41;4483283;32;33850;-69
2022/09/13 02:50:42;;;;;;;0.40;0.40;;;;;;;9.16;81.24;99128.50;4472954;32;35012;-68
2022/09/13 02:53:29;;;;;;;0.60;0.60;;;;;;;10.10;77.08;99127.56;4486737;32;35113;-67
2022/09/13 02:56:17;;;;;;;0.98;0.62;;;;;;;10.28;75.27;99116.91;4486567;31;33333;-68
2022/09/13 02:59:07;;;;;;;0.50;0.50;;;;;;;10.24;75.37;99123.06;4500152;31;34027;-68
2022/09/13 03:01:36;;;;;;;0.60;0.60;;;;;;;10.24;75.08;99123.06;4502401;31;36001;-74
2022/09/13 03:04:04;;;;;;;0.45;0.45;;;;;;;10.09;76.15;99120.62;4488229;31;34520;-69
2022/09/13 03:06:32;;;;;;;0.75;0.75;;;;;;;10.20;74.68;99113.53;4499102;31;34376;-68
2022/09/13 03:09:02;;;;;;;1.35;0.80;;;;;;;9.31;78.74;99107.59;4501225;31;34762;-68
2022/09/13 03:11:51;;;;;;;0.60;0.60;;;;;;;9.88;77.12;99112.19;4486569;31;35081;-68
2022/09/13 03:14:39;;;;;;;0.60;0.60;;;;;;;9.91;76.77;99108.72;4488041;31;35204;-68
2022/09/13 03:17:44;;;;;;;0.50;0.50;;;;;;;9.81;77.39;99110.53;4478155;32;33304;-68
2022/09/13 03:20:23;;;;;;;0.98;0.98;;;;;;;9.90;76.23;99101.78;4486464;32;33899;-68
2022/09/13 03:23:17;;;;;;;0.60;0.60;;;;;;;9.80;76.41;99112.28;4486377;32;34571;-68
2022/09/13 03:26:17;;;;;;;1.25;1.15;;;;;;;9.42;78.18;99105.78;4456871;31;34442;-68
2022/09/13 03:29:03;;;;;;;0.93;0.93;;;;;;;9.62;78.66;99104.72;4432188;31;33379;-68
2022/09/13 03:31:49;;;;;;;0.60;0.60;;;;;;;9.87;77.08;99094.87;4487790;31;33422;-68
2022/09/13 03:34:34;;;;;;;0.47;0.47;;;;;;;10.00;75.16;99098.19;4478655;32;36118;-68
2022/09/13 03:37:56;;;;;;;1.50;1.40;;;;;;;9.59;76.44;99102.13;4472137;32;34439;-68
2022/09/13 03:40:32;;;;;;;0.60;0.60;;;;;;;9.39;77.77;99094.53;4406834;32;34251;-67
2022/09/13 03:43:07;;;;;;;0.60;0.60;;;;;;;9.18;78.78;99093.03;4412588;32;33814;-72
2022/09/13 03:45:39;;;;;;;0.40;0.40;;;;;;;9.64;76.63;99089.94;4476242;31;35065;-69
2022/09/13 03:48:09;;;;;;;0.65;0.65;;;;;;;9.36;77.68;99081.59;4486393;31;34248;-68
2022/09/13 03:50:38;;;;;;;0.60;0.60;;;;;;;9.42;78.55;99090.19;4501834;31;33209;-69
2022/09/13 03:53:10;;;;;;;0.45;0.45;;;;;;;9.20;78.93;99086.91;4501852;31;34009;-68
2022/09/13 03:55:40;;;;;;;1.35;1.27;;;;;;;9.64;78.22;99092.56;4500629;31;36078;-68
2022/09/13 03:58:13;;;;;;;0.70;0.70;;;;;;;9.67;75.73;99087.28;4486327;31;33648;-72
2022/09/13 04:00:41;;;;;;;1.10;0.75;;;;;;;9.69;75.66;99077.75;4487775;31;34248;-68
2022/09/13 04:03:09;;;;;;;0.80;0.80;;;;;;;9.28;76.61;99085.13;4487446;31;34760;-69
2022/09/13 04:05:37;;;;;;;0.60;0.60;;;;;;;9.21;78.53;99088.66;4484856;31;34783;-73
2022/09/13 04:08:06;;;;;;;0.93;0.93;;;;;;;8.00;83.59;99092.03;4474462;31;33841;-69
2022/09/13 04:10:36;;;;;;;0.77;0.77;;;;;;;9.37;78.36;99086.78;4487610;31;33429;-69
2022/09/13 04:13:04;;;;;;;0.50;0.50;;;;;;;9.74;76.74;99093.28;4501508;31;34559;-68
2022/09/13 04:15:32;;;;;;;1.05;0.95;;;;;;;9.24;77.90;99091.19;4484614;31;35927;-69
2022/09/13 04:18:00;;;;;;;1.08;1.02;;;;;;;9.16;78.55;99090.44;4501499;31;34383;-69
2022/09/13 04:20:28;;;;;;;0.57;0.57;;;;;;;9.23;79.25;99092.09;4501622;31;34227;-67
2022/09/13 04:22:56;;;;;;;0.77;0.77;;;;;;;9.88;75.93;99091.38;4499891;31;34687;-67
2022/09/13 04:25:24;;;;;;;0.50;0.50;;;;;;;9.81;75.14;99098.44;4499132;31;35071;-73
2022/09/13 04:27:57;;;;;;;0.65;0.65;;;;;;;9.63;75.72;99103.81;4501139;31;34523;-72
2022/09/13 04:30:26;;;;;;;0.70;0.70;;;;;;;9.35;76.46;99105.84;4500384;31;33518;-68
2022/09/13 04:32:58;;;;;;;0.50;0.50;;;;;;;8.54;80.38;99096.09;4500755;31;33940;-68
2022/09/13 04:35:27;;;;;;;0.60;0.60;;;;;;;8.87;81.67;99094.13;4486598;31;35099;-68
2022/09/13 04:37:56;;;;;;;0.65;0.65;;;;;;;8.90;81.88;99095.84;4495971;31;34476;-69
2022/09/13 04:40:24;;;;;;;0.50;0.50;;;;;;;8.98;82.40;99106.16;4486412;31;34352;-73
2022/09/13 04:42:52;;;;;;;0.50;0.50;;;;;;;8.85;82.70;99100.22;4485476;32;33353;-72
2022/09/13 04:45:20;;;;;;;0.43;0.43;;;;;;;9.61;79.48;99101.22;4474660;31;34399;-73
2022/09/13 04:47:52;;;;;;;0.50;0.50;;;;;;;9.83;77.71;99101.87;4501203;31;34392;-73
2022/09/13 04:50:22;;;;;;;0.62;0.62;;;;;;;9.62;79.38;99097.75;4501247;31;33459;-72
2022/09/13 04:52:50;;;;;;;0.60;0.60;;;;;;;9.96;76.64;99094.75;4500272;31;34664;-73
2022/09/13 04:55:18;;;;;;;0.73;0.73;;;;;;;9.96;76.17;99099.97;4499511;31;35078;-73
2022/09/13 04:57:46;;;;;;;0.60;0.60;;;;;;;9.80;77.46;99094.09;4501153;31;34401;-73
2022/09/13 05:00:14;;;;;;;0.47;0.47;;;;;;;9.89;77.61;99106.12;4499686;31;34223;-68
2022/09/13 05:02:42;;;;;;;0.70;0.70;;;;;;;10.07;78.94;99110.25;4491162;31;34549;-70
2022/09/13 05:05:09;;;;;;;0.40;0.40;;;;;;;10.33;78.36;99107.34;4499508;31;35933;-68
2022/09/13 05:07:38;;;;;;;0.47;0.47;;;;;;;10.51;80.30;99103.63;4499628;31;34298;-68
2022/09/13 05:10:06;;;;;;;0.50;0.50;;;;;;;11.02;77.75;99104.59;4500927;31;33372;-68
2022/09/13 05:12:34;;;;;;;0.75;0.70;;;;;;;11.18;77.16;99096.47;4500608;31;33868;-68
2022/09/13 05:15:01;;;;;;;0.55;0.55;;;;;;;11.31;77.20;99104.09;4499639;31;34743;-68
2022/09/13 05:17:29;;;;;;;0.75;0.75;;;;;;;11.72;75.93;99102.50;4500504;31;34376;-72
2022/09/13 05:19:57;;;;;;;0.77;0.75;;;;;;;11.90;75.99;99102.16;4500454;31;33570;-69
2022/09/13 05:22:25;;;;;;;0.75;0.75;;;;;;;11.41;78.48;99103.03;4499594;31;34868;-69
2022/09/13 05:24:52;;;;;;;0.70;0.70;;;;;;;11.54;77.65;99114.09;4485599;31;34898;-69
2022/09/13 05:27:21;;;;;;;0.47;0.47;;;;;;;12.00;76.69;99108.06;4500838;31;35210;-69
2022/09/13 05:29:48;;;;;;;0.43;0.43;;;;;;;12.75;75.01;99108.16;4500286;31;33416;-69
2022/09/13 05:32:16;;;;;;;0.50;0.50;;;;;;;13.17;73.38;99101.94;4500074;31;34687;-69
2022/09/13 05:34:44;;;;;;;0.60;0.60;;;;;;;13.44;73.79;99103.84;4493866;31;35875;-73
2022/09/13 05:37:12;;;;;;;2.58;2.08;;;;;;;14.28;70.37;99112.03;4500546;31;34512;-73
2022/09/13 05:39:40;;;;;;;0.43;0.40;;;;;;;14.76;69.58;99114.94;4485489;31;34328;-70
2022/09/13 05:42:28;;;;;;;1.10;1.02;;;;;;;15.11;67.20;99109.47;4500730;31;33929;-69
2022/09/13 05:44:56;;;;;;;0.60;0.60;;;;;;;15.02;67.76;99109.75;4498583;31;35005;-73
2022/09/13 05:47:23;;;;;;;0.90;0.85;;;;;;;15.15;67.25;99106.69;4500002;31;34281;-70
2022/09/13 05:49:51;;;;;;;0.50;0.50;;;;;;;15.82;66.50;99115.81;4501496;31;34126;-73
2022/09/13 05:52:36;;;;;;;0.75;0.75;;;;;;;16.09;62.03;99113.97;4502721;31;34753;-74
2022/09/13 05:55:05;;;;;;;1.67;1.17;;;;;;;14.86;66.81;99118.13;4499659;31;35132;-74
2022/09/13 05:57:32;;;;;;;0.45;0.45;;;;;;;15.08;66.67;99120.06;4502657;31;34427;-75
2022/09/13 06:00:00;;;;;;;0.40;0.40;;;;;;;14.86;65.42;99120.75;4502576;31;33233;-74
2022/09/13 06:02:39;;;;;;;0.40;0.40;;;;;;;14.99;66.06;99121.22;4502645;31;34920;-74
2022/09/13 06:05:09;;;;;;;0.77;0.77;;;;;;;16.17;63.27;99123.31;4501046;31;35144;-69
2022/09/13 06:07:41;;;;;;;3.60;2.10;;;;;;;16.87;62.29;99119.75;4486789;31;34539;-71
2022/09/13 06:10:09;;;;;;;0.57;0.57;;;;;;;16.87;61.52;99118.00;4491332;31;33076;-72
2022/09/13 06:12:37;;;;;;;0.65;0.65;;;;;;;17.28;60.10;99121.59;4502130;31;33872;-68
2022/09/13 06:15:05;;;;;;;0.50;0.50;;;;;;;17.79;58.55;99121.19;4487021;31;35771;-72
2022/09/13 06:17:34;;;;;;;0.55;0.47;;;;;;;17.92;55.36;99116.25;4502434;31;35191;-68
2022/09/13 06:20:02;;;;;;;0.55;0.55;;;;;;;18.18;54.08;99116.87;4502426;31;33471;-71
2022/09/13 06:22:32;;;;;;;0.60;0.40;;;;;;;18.39;54.21;99117.66;4501244;31;34830;-69
2022/09/13 06:25:00;;;;;;;0.40;0.40;;;;;;;18.49;54.97;99120.72;4500828;31;35255;-71
2022/09/13 06:27:30;;;;;;;0.45;0.45;;;;;;;18.19;54.42;99111.53;4502784;31;35133;-70
2022/09/13 06:29:58;;;;;;;1.92;1.45;;;;;;;19.24;54.80;99114.47;4502077;31;33547;-69
2022/09/13 06:32:26;;;;;;;0.65;0.50;;;;;;;19.79;53.39;99118.75;4502794;31;34974;-71
2022/09/13 06:34:54;;;;;;;0.75;0.75;;;;;;;20.07;51.89;99112.00;4501508;31;35985;-73
2022/09/13 06:37:22;;;;;;;0.68;0.68;;;;;;;20.31;50.92;99112.47;4486666;32;34523;-68
2022/09/13 06:39:50;;;;;;;0.52;0.52;;;;;;;20.30;51.69;99112.56;4486949;31;34082;-69
2022/09/13 06:42:17;;;;;;;0.73;0.73;;;;;;;18.92;54.50;99111.63;4498551;31;33984;-69
2022/09/13 06:44:47;;;;;;;0.73;0.73;;;;;;;20.76;50.84;99105.59;4502498;31;35884;-69
2022/09/13 06:47:15;;;;;;;1.10;0.88;;;;;;;19.66;55.20;99107.09;4500995;31;33956;-68
2022/09/13 06:49:43;;;;;;;0.85;0.85;;;;;;;20.23;56.93;99112.88;4502415;31;33287;-68
2022/09/13 06:52:10;;;;;;;0.40;0.40;;;;;;;20.60;47.46;99105.56;4502564;31;34791;-69
2022/09/13 06:54:38;;;;;;;0.40;0.40;;;;;;;20.62;48.55;99106.38;4500997;31;35049;-68
2022/09/13 06:57:06;;;;;;;0.45;0.45;;;;;;;21.14;42.47;99112.28;4499761;31;34450;-68
2022/09/13 06:59:34;;;;;;;1.10;0.85;;;;;;;20.57;43.05;99118.13;4502419;31;33850;-68
2022/09/13 07:02:02;;;;;;;0.40;0.40;;;;;;;21.00;44.32;99116.59;4502368;31;33956;-69
2022/09/13 07:04:30;;;;;;;3.78;1.42;;;;;;;21.05;41.88;99123.41;4502189;31;35066;-69
2022/09/13 07:06:58;;;;;;;0.90;0.55;;;;;;;21.05;45.33;99120.75;4495497;31;35240;-73
2022/09/13 07:09:26;;;;;;;0.55;0.50;;;;;;;21.33;44.47;99118.22;4489608;31;34109;-72
2022/09/13 07:11:55;;;;;;;0.52;0.52;;;;;;;22.31;40.22;99123.87;4488782;31;34693;-73
2022/09/13 07:14:25;;;;;;;1.85;0.95;;;;;;;21.99;39.71;99132.00;4502182;31;35713;-72
2022/09/13 07:16:54;;;;;;;0.40;0.40;;;;;;;20.51;43.40;99129.91;4487833;31;32843;-74
2022/09/13 07:19:26;;;;;;;0.62;0.62;;;;;;;21.20;41.76;99130.47;4502102;31;33301;-73
2022/09/13 07:21:56;;;;;;;0.50;0.50;;;;;;;21.16;39.92;99126.28;4502120;31;33870;-68
2022/09/13 07:24:24;;;;;;;1.12;0.93;;;;;;;20.94;40.50;99126.66;4502146;31;35024;-69
2022/09/13 07:26:52;;;;;;;1.25;1.15;;;;;;;21.64;40.62;99136.78;4500561;31;34355;-69
2022/09/13 07:29:22;;;;;;;1.58;1.33;;;;;;;21.26;41.01;99132.75;4502039;31;33470;-68
2022/09/13 07:31:53;;;;;;;0.62;0.62;;;;;;;20.97;40.58;99140.59;4502086;31;33141;-71
2022/09/13 07:34:25;;;;;;;1.10;1.00;;;;;;;20.96;42.70;99138.88;4488213;31;34329;-68
2022/09/13 07:36:53;;;;;;;0.20;0.20;;;;;;;19.89;43.22;99135.84;4500670;31;34411;-69
2022/09/13 07:39:23;;;;;;;1.00;0.95;;;;;;;20.84;42.44;99126.31;4496825;31;33374;-72
2022/09/13 07:41:52;;;;;;;0.40;0.40;;;;;;;20.87;42.58;99130.59;4494441;31;33834;-68
2022/09/13 07:44:21;;;;;;;0.62;0.62;;;;;;;21.10;43.94;99134.59;4497185;31;35000;-68
2022/09/13 07:46:49;;;;;;;0.20;0.20;;;;;;;21.61;41.46;99139.63;4496376;31;35207;-68
2022/09/13 07:49:17;;;;;;;1.08;1.08;;;;;;;21.90;41.06;99143.16;4501719;31;34235;-68
2022/09/13 07:51:46;;;;;;;0.43;0.43;;;;;;;21.76;41.86;99139.56;4501945;31;34824;-68
2022/09/13 07:54:15;;;;;;;2.05;1.85;;;;;;;21.72;41.81;99139.81;4501751;31;35095;-68
2022/09/13 07:56:43;;;;;;;0.55;0.55;;;;;;;21.96;41.56;99142.78;4500258;31;35314;-69
2022/09/13 07:59:14;;;;;;;0.60;0.60;;;;;;;21.95;45.40;99135.78;4495435;31;33366;-70
2022/09/13 08:01:44;;;;;;;0.45;0.45;;;;;;;22.86;41.45;99132.78;4485911;32;33181;-68
2022/09/13 08:04:18;;;;;;;0.40;0.40;;;;;;;23.13;39.06;99135.44;4485987;32;35806;-68
2022/09/13 08:06:46;;;;;;;0.37;0.37;;;;;;;21.76;40.45;99138.72;4484135;31;34550;-68
2022/09/13 08:09:15;;;;;;;0.57;0.57;;;;;;;21.53;42.08;99132.97;4501620;31;34207;-71
2022/09/13 08:11:48;;;;;;;0.25;0.25;;;;;;;22.33;40.70;99133.44;4499893;31;33867;-69
2022/09/13 08:14:18;;;;;;;0.62;0.62;;;;;;;22.09;43.76;99127.81;4500049;31;35075;-68
2022/09/13 08:16:46;;;;;;;2.97;1.17;;;;;;;22.91;40.43;99134.19;4500342;31;34357;-68
2022/09/13 08:19:16;;;;;;;1.23;0.62;;;;;;;22.96;39.20;99141.84;4501700;31;33344;-73
2022/09/13 08:21:45;;;;;;;1.67;0.93;;;;;;;22.42;41.29;99144.44;4501599;31;34741;-69
2022/09/13 08:24:16;;;;;;;0.43;0.43;;;;;;;22.65;41.27;99142.97;4501499;31;35029;-71
2022/09/13 08:26:44;;;;;;;0.73;0.73;;;;;;;23.76;39.05;99138.34;4499180;31;34414;-68
2022/09/13 08:29:13;;;;;;;0.52;0.52;;;;;;;23.59;37.97;99135.03;4499507;31;34456;-71
2022/09/13 08:31:41;;;;;;;0.35;0.35;;;;;;;24.44;37.64;99133.66;4496635;31;34060;-71
2022/09/13 08:34:10;;;;;;;2.72;0.60;;;;;;;23.33;38.17;99141.25;4501657;31;35143;-69
2022/09/13 08:36:40;;;;;;;3.15;1.45;;;;;;;22.41;40.63;99140.91;4500130;31;35090;-68
2022/09/13 08:39:08;;;;;;;0.75;0.75;;;;;;;22.94;41.55;99140.22;4501869;31;33153;-68
2022/09/13 08:41:39;;;;;;;1.35;1.08;;;;;;;23.15;38.34;99133.53;4501486;31;33684;-68
2022/09/13 08:44:25;;;;;;;1.15;1.05;;;;;;;22.42;40.91;99133.81;4489119;31;35133;-70
2022/09/13 08:47:03;;;;;;;0.30;0.30;;;;;;;22.68;37.95;99132.16;4484811;31;34515;-68
2022/09/13 08:49:40;;;;;;;1.15;1.05;;;;;;;22.51;38.49;99134.06;4487155;31;33470;-67
2022/09/13 08:52:37;;;;;;;0.52;0.52;;;;;;;22.47;40.12;99132.56;4501258;31;34099;-68
2022/09/13 08:55:31;;;;;;;0.30;0.30;;;;;;;22.85;37.20;99131.94;4499716;31;35975;-69
2022/09/13 08:58:36;;;;;;;2.10;1.08;;;;;;;22.70;38.44;99140.88;4499962;31;35362;-70
2022/09/13 09:01:30;;;;;;;0.45;0.45;;;;;;;22.45;38.09;99131.81;4501301;31;33235;-70
2022/09/13 09:04:02;;;;;;;0.20;0.20;;;;;;;23.77;35.61;99134.72;4461475;31;34432;-70
2022/09/13 09:06:33;;;;;;;0.75;0.73;;;;;;;23.52;37.83;99135.56;4490668;31;36004;-71
2022/09/13 09:09:07;;;;;;;0.50;0.50;;;;;;;24.03;35.62;99133.81;4481148;31;34389;-69
2022/09/13 09:11:41;;;;;;;0.47;0.47;;;;;;;23.94;35.63;99125.63;4485360;31;34064;-69
2022/09/13 09:14:45;;;;;;;0.90;0.62;;;;;;;23.59;36.25;99132.37;4501050;31;33939;-68
2022/09/13 09:17:19;;;;;;;1.00;0.47;;;;;;;23.92;37.34;99138.19;4501119;31;34574;-69
2022/09/13 09:20:13;;;;;;;0.32;0.32;;;;;;;23.50;37.93;99127.69;4501814;31;34266;-68
2022/09/13 09:22:42;;;;;;;1.35;0.95;;;;;;;24.40;36.94;99115.25;4502849;31;32340;-68
2022/09/13 09:25:11;;;;;;;0.88;0.88;;;;;;;23.83;36.37;99126.38;4500522;31;34008;-69
2022/09/13 09:27:39;;;;;;;1.87;1.67;;;;;;;24.01;35.61;99116.25;4502731;31;34993;-69
2022/09/13 09:30:13;;;;;;;1.12;1.05;;;;;;;24.22;36.53;99114.75;4502389;31;34417;-69
2022/09/13 09:32:59;;;;;;;0.62;0.62;;;;;;;23.92;36.84;99111.59;4488818;31;34304;-69
2022/09/13 09:35:36;;;;;;;0.40;0.40;;;;;;;24.69;34.06;99103.47;4500119;31;34586;-69
2022/09/13 09:38:07;;;;;;;0.68;0.68;;;;;;;23.82;35.71;99095.41;4502740;31;34463;-69
2022/09/13 09:40:37;;;;;;;2.72;1.20;;;;;;;25.24;34.46;99106.56;4501621;31;34450;-68
2022/09/13 09:43:16;;;;;;;0.80;0.30;;;;;;;25.02;34.03;99102.81;4502659;31;34326;-68
2022/09/13 09:45:45;;;;;;;0.30;0.30;;;;;;;24.56;35.06;99104.38;4487212;31;33997;-69
2022/09/13 09:48:17;;;;;;;1.02;0.80;;;;;;;25.29;33.82;99099.06;4488711;31;36009;-69
2022/09/13 09:50:52;;;;;;;1.10;1.02;;;;;;;25.15;34.49;99092.94;4487306;31;34526;-69
2022/09/13 09:53:27;;;;;;;0.35;0.35;;;;;;;24.82;34.81;99087.47;4500601;31;33593;-70
2022/09/13 09:56:13;;;;;;;1.33;0.95;;;;;;;25.09;33.99;99088.06;4478685;31;34904;-70
2022/09/13 09:58:43;;;;;;;0.43;0.43;;;;;;;25.00;35.18;99079.91;4489063;31;35214;-70
2022/09/13 10:01:25;;;;;;;0.40;0.40;;;;;;;25.67;35.49;99077.47;4500635;31;33580;-69
2022/09/13 10:03:57;;;;;;;0.40;0.40;;;;;;;25.89;32.05;99081.16;4486872;32;33565;-69
2022/09/13 10:06:27;;;;;;;0.45;0.45;;;;;;;25.63;33.18;99069.84;4496164;31;33820;-69
2022/09/13 10:09:04;;;;;;;0.20;0.20;;;;;;;24.38;36.71;99065.75;4501148;31;34395;-69
2022/09/13 10:11:49;;;;;;;0.47;0.47;;;;;;;24.71;33.35;99067.81;4502323;31;34207;-69
2022/09/13 10:14:37;;;;;;;0.30;0.30;;;;;;;24.12;33.91;99063.16;4502518;31;34318;-70
2022/09/13 10:17:15;;;;;;;0.57;0.57;;;;;;;25.31;32.48;99055.34;4501250;31;34041;-70
2022/09/13 10:19:57;;;;;;;0.50;0.50;;;;;;;24.53;35.98;99059.38;4502498;31;35085;-72
2022/09/13 10:22:25;;;;;;;0.50;0.35;;;;;;;24.72;32.86;99061.50;4499976;31;34367;-69
2022/09/13 10:24:54;;;;;;;7.53;1.25;;;;;;;25.42;33.73;99054.53;4487701;31;33414;-68
2022/09/13 10:27:35;;;;;;;0.55;0.55;;;;;;;25.64;31.91;99060.84;4485482;32;33989;-68
2022/09/13 10:30:05;;;;;;;0.40;0.40;;;;;;;25.49;30.93;99057.56;4472177;32;35111;-70
2022/09/13 10:32:33;;;;;;;0.50;0.50;;;;;;;25.36;32.75;99052.34;4485543;32;34425;-69
2022/09/13 10:35:15;;;;;;;0.30;0.30;;;;;;;25.16;33.77;99051.16;4486206;31;34155;-69
2022/09/13 10:37:43;;;;;;;0.40;0.40;;;;;;;25.07;38.43;99044.69;4482909;31;34059;-69
2022/09/13 10:40:32;;;;;;;0.57;0.57;;;;;;;25.05;36.31;99035.13;4502450;31;34980;-69
2022/09/13 10:43:03;;;;;;;0.20;0.20;;;;;;;25.98;33.59;99042.22;4501242;31;35063;-69
2022/09/13 10:45:31;;;;;;;0.40;0.35;;;;;;;25.66;32.96;99042.91;4486950;31;33445;-70
2022/09/13 10:48:12;;;;;;;0.80;0.68;;;;;;;24.96;33.27;99048.19;4502595;31;34606;-68
2022/09/13 10:51:00;;;;;;;0.70;0.62;;;;;;;26.38;31.99;99044.38;4488112;31;35048;-69
2022/09/13 10:53:39;;;;;;;0.20;0.20;;;;;;;24.97;32.21;99047.22;4502292;31;34532;-73
2022/09/13 10:56:22;;;;;;;0.65;0.65;;;;;;;24.98;35.63;99046.25;4493228;31;34009;-68
2022/09/13 10:58:50;;;;;;;0.52;0.52;;;;;;;24.72;36.45;99042.84;4488346;31;33803;-68
2022/09/13 11:01:36;;;;;;;0.50;0.50;;;;;;;25.43;32.82;99044.69;4501091;31;35022;-68
2022/09/13 11:04:29;;;;;;;0.35;0.35;;;;;;;25.40;34.44;99042.28;4488481;31;34385;-69
2022/09/13 11:07:24;;;;;;;0.30;0.30;;;;;;;24.52;33.99;99035.47;4501176;31;33197;-68
2022/09/13 11:10:10;;;;;;;1.37;1.27;;;;;;;25.11;34.57;99037.31;4498366;31;33947;-68
2022/09/13 11:12:44;;;;;;;0.52;0.52;;;;;;;26.19;34.50;99040.53;4501903;31;35985;-68
2022/09/13 11:15:40;;;;;;;0.43;0.43;;;;;;;25.73;35.31;99029.00;4499152;31;34568;-69
2022/09/13 11:18:32;;;;;;;2.08;1.08;;;;;;;26.04;34.09;99029.25;4500839;31;33436;-69
2022/09/13 11:21:06;;;;;;;0.40;0.40;;;;;;;25.94;32.47;99033.63;4502267;31;33978;-68
2022/09/13 11:23:42;;;;;;;0.30;0.30;;;;;;;25.91;33.80;99032.03;4502137;31;35963;-68
2022/09/13 11:26:16;;;;;;;;;;;;;;;26.43;32.41;99035.00;4487233;31;34625;-69
2022/09/13 11:29:19;;;;;;;0.52;0.52;;;;;;;25.59;34.69;99031.03;4502226;31;33525;-72
2022/09/13 11:32:13;;;;;;;0.20;0.20;;;;;;;24.53;34.24;99026.50;4501913;31;34742;-68
2022/09/13 11:35:02;;;;;;;0.60;0.60;;;;;;;26.76;32.39;99019.06;4488611;31;35710;-72
2022/09/13 11:37:50;;;;;;;1.35;1.25;;;;;;;25.26;34.02;99016.69;4495667;31;34530;-73
2022/09/13 11:40:43;;;;;;;0.43;0.43;;;;;;;26.60;33.05;99014.09;4501570;31;34144;-72
2022/09/13 11:43:33;;;;;;;0.10;0.10;;;;;;;25.42;35.42;99008.38;4486751;31;34892;-72
2022/09/13 11:46:23;;;;;;;0.20;0.20;;;;;;;25.44;35.42;99007.28;4500405;31;35968;-74
2022/09/13 11:49:30;;;;;;;0.20;0.20;;;;;;;25.87;34.80;98997.69;4486213;31;32708;-74
2022/09/13 11:52:23;;;;;;;0.45;0.45;;;;;;;26.75;29.13;98988.81;4501909;31;33472;-73
2022/09/13 11:55:24;;;;;;;1.65;0.40;;;;;;;25.48;35.43;98987.41;4487987;31;34783;-72
2022/09/13 11:57:56;;;;;;;4.00;0.70;;;;;;;25.76;34.28;98987.87;4446237;31;34927;-68
2022/09/13 12:00:37;;;;;;;0.10;0.10;;;;;;;25.70;30.89;98986.56;4485730;31;34456;-69
2022/09/13 12:03:14;;;;;;;0.80;0.40;;;;;;;26.05;32.35;98984.75;4500022;31;34304;-68
2022/09/13 12:06:06;;;;;;;0.40;0.40;;;;;;;25.53;31.95;98987.03;4500929;31;34613;-68
2022/09/13 12:08:39;;;;;;;0.60;0.60;;;;;;;25.84;32.68;98998.81;4501801;31;35077;-68
2022/09/13 12:11:18;;;;;;;0.37;0.37;;;;;;;25.76;31.44;98990.56;4501831;31;35192;-69
2022/09/13 12:13:52;;;;;;;0.22;0.22;;;;;;;25.69;36.55;98989.34;4500131;31;33155;-68